createdAt,value
2019-06-08T00:00:05.227Z,17.58
2019-06-08T00:01:05.221Z,17.57
2019-06-08T00:02:05.217Z,17.51
2019-06-08T00:03:05.213Z,17.47
2019-06-08T00:04:05.206Z,17.51
2019-06-08T00:05:05.207Z,17.46
2019-06-08T00:06:05.205Z,17.53
2019-06-08T00:07:05.202Z,17.47
2019-06-08T00:08:05.197Z,17.51
2019-06-08T00:09:05.189Z,17.47
2019-06-08T00:10:05.185Z,17.42
2019-06-08T00:11:05.196Z,17.33
2019-06-08T00:12:05.173Z,17.40
2019-06-08T00:13:05.176Z,17.35
2019-06-08T00:14:05.171Z,17.39
2019-06-08T00:15:05.161Z,17.36
2019-06-08T00:16:05.159Z,17.40
2019-06-08T00:17:05.159Z,17.43
2019-06-08T00:18:05.156Z,17.42
2019-06-08T00:19:05.154Z,17.42
2019-06-08T00:20:05.147Z,17.39
2019-06-08T00:21:05.140Z,17.42
2019-06-08T00:22:05.136Z,17.46
2019-06-08T00:23:05.133Z,17.43
2019-06-08T00:24:05.127Z,17.45
2019-06-08T00:25:05.130Z,17.51
2019-06-08T00:26:05.123Z,17.42
2019-06-08T00:27:05.116Z,17.40
2019-06-08T00:28:05.114Z,17.47
2019-06-08T00:29:05.104Z,17.51
2019-06-08T00:30:05.101Z,17.47
2019-06-08T00:31:05.103Z,17.49
2019-06-08T00:32:05.096Z,17.43
2019-06-08T00:33:05.090Z,17.47
2019-06-08T00:34:05.084Z,17.46
2019-06-08T00:35:05.083Z,17.47
2019-06-08T00:36:05.085Z,17.53
2019-06-08T00:37:05.079Z,17.55
2019-06-08T00:38:05.076Z,17.58
2019-06-08T00:39:05.071Z,17.54
2019-06-08T00:40:05.067Z,17.62
2019-06-08T00:41:05.067Z,17.57
2019-06-08T00:42:05.057Z,17.55
2019-06-08T00:43:05.049Z,17.54
2019-06-08T00:44:05.044Z,17.54
2019-06-08T00:45:05.044Z,17.47
2019-06-08T00:46:05.059Z,17.53
2019-06-08T00:47:05.036Z,17.54
2019-06-08T00:48:05.032Z,17.47
2019-06-08T00:49:05.031Z,17.47
2019-06-08T00:50:05.024Z,17.47
2019-06-08T00:51:05.024Z,17.53
2019-06-08T00:52:05.019Z,17.46
2019-06-08T00:53:05.011Z,17.46
2019-06-08T00:54:05.007Z,17.51
2019-06-08T00:55:05.004Z,17.53
2019-06-08T00:56:04.999Z,17.46
2019-06-08T00:57:05.000Z,17.49
2019-06-08T00:58:04.997Z,17.47
2019-06-08T00:59:04.993Z,17.49
2019-06-08T01:00:10.164Z,17.53
2019-06-08T01:01:04.985Z,17.47
2019-06-08T01:02:04.979Z,17.49
2019-06-08T01:03:04.987Z,17.49
2019-06-08T01:04:04.976Z,17.53
2019-06-08T01:05:04.965Z,17.53
2019-06-08T01:06:04.958Z,17.49
2019-06-08T01:07:04.957Z,17.49
2019-06-08T01:08:04.966Z,17.51
2019-06-08T01:09:04.953Z,17.53
2019-06-08T01:10:04.949Z,17.51
2019-06-08T01:11:04.945Z,17.46
2019-06-08T01:12:04.953Z,17.47
2019-06-08T01:13:04.932Z,17.53
2019-06-08T01:14:04.933Z,17.49
2019-06-08T01:15:04.953Z,17.49
2019-06-08T01:16:04.918Z,17.49
2019-06-08T01:17:04.920Z,17.54
2019-06-08T01:18:04.915Z,17.47
2019-06-08T01:19:04.907Z,17.49
2019-06-08T01:20:04.903Z,17.49
2019-06-08T01:21:04.907Z,17.51
2019-06-08T01:22:04.900Z,17.49
2019-06-08T01:23:04.898Z,17.49
2019-06-08T01:24:04.896Z,17.47
2019-06-08T01:25:04.886Z,17.46
2019-06-08T01:26:04.883Z,17.42
2019-06-08T01:27:04.879Z,17.49
2019-06-08T01:28:04.874Z,17.39
2019-06-08T01:29:04.873Z,17.38
2019-06-08T01:30:04.870Z,17.33
2019-06-08T01:31:04.864Z,17.36
2019-06-08T01:32:04.866Z,17.42
2019-06-08T01:33:04.860Z,17.40
2019-06-08T01:34:04.848Z,17.38
2019-06-08T01:35:04.853Z,17.42
2019-06-08T01:36:04.852Z,17.42
2019-06-08T01:37:04.835Z,17.40
2019-06-08T01:38:04.832Z,17.39
2019-06-08T01:39:04.830Z,17.39
2019-06-08T01:40:04.828Z,17.36
2019-06-08T01:41:04.824Z,17.39
2019-06-08T01:42:04.822Z,17.32
2019-06-08T01:43:04.818Z,17.20
2019-06-08T01:44:04.814Z,17.30
2019-06-08T01:45:04.807Z,17.25
2019-06-08T01:46:04.803Z,17.30
2019-06-08T01:47:04.799Z,17.25
2019-06-08T01:48:18.867Z,17.24
2019-06-08T01:49:04.792Z,17.32
2019-06-08T01:50:04.788Z,17.17
2019-06-08T01:51:04.783Z,17.17
2019-06-08T01:52:04.775Z,17.14
2019-06-08T01:53:04.777Z,17.17
2019-06-08T01:54:04.771Z,17.25
2019-06-08T01:55:04.771Z,17.20
2019-06-08T01:56:04.768Z,17.17
2019-06-08T01:57:04.758Z,17.14
2019-06-08T01:58:04.759Z,17.15
2019-06-08T01:59:04.750Z,17.10
2019-06-08T02:00:29.235Z,17.12
2019-06-08T02:01:04.747Z,17.09
2019-06-08T02:02:04.754Z,17.18
2019-06-08T02:03:04.737Z,17.10
2019-06-08T02:04:04.732Z,17.10
2019-06-08T02:05:04.724Z,17.06
2019-06-08T02:06:04.722Z,17.12
2019-06-08T02:07:04.721Z,17.10
2019-06-08T02:08:04.720Z,17.05
2019-06-08T02:09:04.706Z,17.06
2019-06-08T02:10:04.705Z,17.07
2019-06-08T02:11:04.703Z,17.06
2019-06-08T02:12:04.698Z,17.09
2019-06-08T02:13:08.464Z,17.10
2019-06-08T02:14:04.696Z,17.06
2019-06-08T02:15:04.689Z,17.03
2019-06-08T02:16:04.683Z,17.05
2019-06-08T02:17:04.675Z,17.03
2019-06-08T02:18:04.676Z,17.06
2019-06-08T02:19:04.670Z,17.03
2019-06-08T02:20:04.665Z,17.02
2019-06-08T02:21:04.665Z,16.91
2019-06-08T02:22:04.662Z,17.03
2019-06-08T02:23:04.654Z,17.00
2019-06-08T02:24:04.655Z,16.99
2019-06-08T02:25:04.652Z,16.96
2019-06-08T02:26:04.646Z,16.90
2019-06-08T02:27:04.642Z,16.92
2019-06-08T02:28:04.635Z,16.92
2019-06-08T02:29:04.641Z,16.91
2019-06-08T02:30:04.627Z,16.92
2019-06-08T02:31:04.636Z,16.88
2019-06-08T02:32:04.613Z,16.95
2019-06-08T02:33:04.615Z,16.95
2019-06-08T02:34:04.624Z,16.90
2019-06-08T02:35:04.611Z,16.90
2019-06-08T02:36:04.606Z,16.85
2019-06-08T02:37:04.614Z,16.82
2019-06-08T02:38:04.593Z,16.87
2019-06-08T02:39:04.598Z,16.92
2019-06-08T02:40:04.591Z,16.90
2019-06-08T02:41:04.580Z,16.92
2019-06-08T02:42:04.576Z,16.95
2019-06-08T02:43:04.571Z,16.78
2019-06-08T02:44:04.564Z,16.87
2019-06-08T02:45:04.567Z,16.77
2019-06-08T02:46:04.561Z,16.81
2019-06-08T02:47:04.560Z,16.82
2019-06-08T02:48:04.553Z,16.80
2019-06-08T02:49:05.078Z,16.90
2019-06-08T02:50:04.542Z,16.85
2019-06-08T02:51:04.538Z,16.80
2019-06-08T02:52:04.534Z,16.84
2019-06-08T02:53:04.535Z,16.78
2019-06-08T02:54:04.529Z,16.77
2019-06-08T02:55:04.523Z,16.77
2019-06-08T02:56:04.517Z,16.81
2019-06-08T02:57:04.519Z,16.80
2019-06-08T02:58:04.513Z,16.77
2019-06-08T02:59:04.514Z,16.82
2019-06-08T03:00:04.506Z,16.87
2019-06-08T03:01:04.517Z,16.82
2019-06-08T03:02:04.496Z,16.84
2019-06-08T03:03:04.512Z,16.84
2019-06-08T03:04:04.493Z,16.81
2019-06-08T03:05:04.484Z,16.78
2019-06-08T03:06:04.480Z,16.81
2019-06-08T03:07:04.478Z,16.84
2019-06-08T03:08:04.471Z,16.78
2019-06-08T03:09:04.465Z,16.78
2019-06-08T03:10:04.460Z,16.77
2019-06-08T03:11:04.458Z,16.80
2019-06-08T03:12:04.455Z,16.77
2019-06-08T03:13:04.447Z,16.75
2019-06-08T03:14:04.443Z,16.75
2019-06-08T03:15:04.439Z,16.78
2019-06-08T03:16:04.432Z,16.78
2019-06-08T03:17:04.433Z,16.77
2019-06-08T03:18:04.428Z,16.77
2019-06-08T03:19:19.952Z,16.77
2019-06-08T03:20:04.419Z,16.78
2019-06-08T03:21:04.414Z,16.81
2019-06-08T03:22:04.408Z,16.81
2019-06-08T03:23:04.402Z,16.82
2019-06-08T03:24:04.398Z,16.75
2019-06-08T03:25:04.399Z,16.75
2019-06-08T03:26:04.395Z,16.77
2019-06-08T03:27:04.394Z,16.73
2019-06-08T03:28:04.381Z,16.72
2019-06-08T03:29:04.390Z,16.66
2019-06-08T03:30:16.192Z,16.72
2019-06-08T03:31:04.382Z,16.63
2019-06-08T03:32:04.373Z,16.60
2019-06-08T03:33:04.363Z,16.59
2019-06-08T03:34:04.360Z,16.57
2019-06-08T03:35:04.390Z,16.55
2019-06-08T03:36:04.351Z,16.57
2019-06-08T03:37:04.353Z,16.55
2019-06-08T03:38:04.350Z,16.63
2019-06-08T03:39:04.340Z,16.55
2019-06-08T03:40:04.335Z,16.59
2019-06-08T03:41:04.328Z,16.54
2019-06-08T03:42:04.323Z,16.52
2019-06-08T03:43:04.337Z,16.52
2019-06-08T03:44:04.324Z,16.60
2019-06-08T03:45:04.310Z,16.47
2019-06-08T03:46:04.323Z,16.51
2019-06-08T03:47:04.307Z,16.55
2019-06-08T03:48:04.300Z,16.51
2019-06-08T03:49:04.304Z,16.47
2019-06-08T03:50:04.298Z,16.50
2019-06-08T03:51:04.297Z,16.48
2019-06-08T03:52:04.289Z,16.45
2019-06-08T03:53:04.281Z,16.42
2019-06-08T03:54:04.278Z,16.50
2019-06-08T03:55:04.270Z,16.47
2019-06-08T03:56:04.291Z,16.45
2019-06-08T03:57:04.266Z,16.47
2019-06-08T03:58:04.259Z,16.50
2019-06-08T03:59:04.252Z,16.44
2019-06-08T04:00:12.867Z,16.45
2019-06-08T04:01:04.246Z,16.47
2019-06-08T04:02:04.243Z,16.47
2019-06-08T04:03:04.239Z,16.48
2019-06-08T04:04:04.234Z,16.47
2019-06-08T04:05:04.229Z,16.45
2019-06-08T04:06:04.224Z,16.44
2019-06-08T04:07:04.220Z,16.48
2019-06-08T04:08:04.214Z,16.44
2019-06-08T04:09:04.225Z,16.45
2019-06-08T04:10:04.213Z,16.42
2019-06-08T04:11:04.205Z,16.50
2019-06-08T04:12:04.199Z,16.45
2019-06-08T04:13:04.200Z,16.47
2019-06-08T04:14:04.191Z,16.48
2019-06-08T04:15:04.187Z,16.50
2019-06-08T04:16:04.184Z,16.45
2019-06-08T04:17:04.177Z,16.42
2019-06-08T04:18:04.169Z,16.47
2019-06-08T04:19:04.169Z,16.42
2019-06-08T04:20:11.193Z,16.42
2019-06-08T04:21:04.161Z,16.41
2019-06-08T04:22:04.157Z,16.48
2019-06-08T04:23:04.151Z,16.48
2019-06-08T04:24:04.155Z,16.45
2019-06-08T04:25:04.138Z,16.40
2019-06-08T04:26:04.134Z,16.40
2019-06-08T04:27:04.133Z,16.45
2019-06-08T04:28:04.140Z,16.42
2019-06-08T04:29:04.125Z,16.45
2019-06-08T04:30:04.124Z,16.45
2019-06-08T04:31:04.123Z,16.47
2019-06-08T04:32:04.109Z,16.41
2019-06-08T04:33:04.109Z,16.42
2019-06-08T04:34:04.103Z,16.40
2019-06-08T04:35:04.098Z,16.36
2019-06-08T04:36:04.094Z,16.40
2019-06-08T04:37:04.082Z,16.40
2019-06-08T04:38:04.080Z,16.41
2019-06-08T04:39:04.081Z,16.33
2019-06-08T04:40:04.069Z,16.34
2019-06-08T04:41:04.077Z,16.36
2019-06-08T04:42:04.068Z,16.30
2019-06-08T04:43:04.065Z,16.32
2019-06-08T04:44:04.060Z,16.36
2019-06-08T04:45:04.053Z,16.32
2019-06-08T04:46:04.047Z,16.18
2019-06-08T04:47:04.048Z,16.34
2019-06-08T04:48:04.043Z,16.32
2019-06-08T04:49:04.033Z,16.29
2019-06-08T04:50:20.812Z,16.27
2019-06-08T04:51:04.025Z,16.33
2019-06-08T04:52:04.016Z,16.23
2019-06-08T04:53:04.018Z,16.33
2019-06-08T04:54:04.013Z,16.32
2019-06-08T04:55:04.008Z,16.26
2019-06-08T04:56:04.005Z,16.29
2019-06-08T04:57:03.993Z,16.32
2019-06-08T04:58:03.997Z,16.27
2019-06-08T04:59:03.990Z,16.26
2019-06-08T05:00:11.685Z,16.27
2019-06-08T05:01:03.991Z,16.34
2019-06-08T05:02:03.980Z,16.33
2019-06-08T05:03:03.971Z,16.27
2019-06-08T05:04:03.964Z,16.23
2019-06-08T05:05:03.967Z,16.29
2019-06-08T05:06:03.960Z,16.29
2019-06-08T05:07:03.954Z,16.29
2019-06-08T05:08:03.974Z,16.26
2019-06-08T05:09:03.943Z,16.25
2019-06-08T05:10:03.936Z,16.26
2019-06-08T05:11:03.934Z,16.27
2019-06-08T05:12:03.932Z,16.30
2019-06-08T05:13:03.928Z,16.32
2019-06-08T05:14:03.927Z,16.29
2019-06-08T05:15:03.920Z,16.30
2019-06-08T05:16:03.917Z,16.30
2019-06-08T05:17:03.909Z,16.34
2019-06-08T05:18:03.906Z,16.42
2019-06-08T05:19:03.903Z,16.34
2019-06-08T05:20:03.932Z,16.27
2019-06-08T05:21:03.905Z,16.34
2019-06-08T05:22:03.886Z,16.27
2019-06-08T05:23:03.879Z,16.27
2019-06-08T05:24:03.878Z,16.26
2019-06-08T05:25:03.874Z,16.27
2019-06-08T05:26:03.867Z,16.27
2019-06-08T05:27:03.870Z,16.25
2019-06-08T05:28:03.857Z,16.30
2019-06-08T05:29:03.864Z,16.23
2019-06-08T05:30:08.306Z,16.27
2019-06-08T05:31:03.860Z,16.27
2019-06-08T05:32:03.842Z,16.25
2019-06-08T05:33:03.832Z,16.18
2019-06-08T05:34:03.830Z,16.29
2019-06-08T05:35:03.831Z,16.17
2019-06-08T05:36:03.827Z,16.13
2019-06-08T05:37:03.824Z,16.14
2019-06-08T05:38:03.812Z,16.22
2019-06-08T05:39:03.810Z,16.14
2019-06-08T05:40:03.804Z,16.11
2019-06-08T05:41:03.803Z,16.13
2019-06-08T05:42:03.799Z,16.16
2019-06-08T05:43:03.800Z,16.08
2019-06-08T05:44:03.794Z,16.22
2019-06-08T05:45:03.782Z,16.06
2019-06-08T05:46:03.779Z,16.08
2019-06-08T05:47:03.771Z,16.11
2019-06-08T05:48:03.765Z,16.13
2019-06-08T05:49:03.775Z,16.10
2019-06-08T05:50:03.762Z,16.08
2019-06-08T05:51:04.474Z,16.10
2019-06-08T05:52:03.747Z,16.10
2019-06-08T05:53:03.749Z,16.11
2019-06-08T05:54:03.753Z,16.14
2019-06-08T05:55:03.746Z,16.13
2019-06-08T05:56:03.736Z,16.10
2019-06-08T05:57:03.728Z,16.11
2019-06-08T05:58:03.724Z,16.08
2019-06-08T05:59:03.725Z,16.11
2019-06-08T06:00:08.728Z,16.10
2019-06-08T06:01:03.715Z,16.17
2019-06-08T06:02:03.721Z,16.03
2019-06-08T06:03:03.705Z,15.93
2019-06-08T06:04:03.699Z,16.03
2019-06-08T06:05:03.690Z,15.92
2019-06-08T06:06:03.685Z,15.99
2019-06-08T06:07:03.705Z,15.93
2019-06-08T06:08:17.578Z,15.95
2019-06-08T06:09:03.674Z,15.95
2019-06-08T06:10:03.669Z,15.93
2019-06-08T06:11:03.667Z,15.99
2019-06-08T06:12:03.661Z,16.03
2019-06-08T06:13:03.663Z,15.89
2019-06-08T06:14:03.666Z,15.98
2019-06-08T06:15:03.661Z,15.95
2019-06-08T06:16:03.647Z,15.84
2019-06-08T06:17:03.645Z,15.85
2019-06-08T06:18:03.638Z,15.96
2019-06-08T06:19:03.631Z,15.85
2019-06-08T06:20:03.623Z,15.86
2019-06-08T06:21:11.132Z,15.92
2019-06-08T06:22:03.615Z,15.81
2019-06-08T06:23:03.610Z,15.86
2019-06-08T06:24:03.603Z,15.89
2019-06-08T06:25:03.609Z,15.95
2019-06-08T06:26:03.647Z,15.89
2019-06-08T06:27:03.598Z,15.78
2019-06-08T06:28:06.280Z,15.99
2019-06-08T06:29:03.583Z,16.04
2019-06-08T06:30:03.583Z,15.92
2019-06-08T06:31:03.573Z,15.93
2019-06-08T06:32:03.569Z,16.07
2019-06-08T06:33:03.568Z,16.07
2019-06-08T06:34:03.562Z,16.03
2019-06-08T06:35:03.561Z,15.99
2019-06-08T06:36:03.556Z,16.01
2019-06-08T06:37:03.547Z,16.03
2019-06-08T06:38:03.618Z,16.04
2019-06-08T06:39:03.564Z,16.10
2019-06-08T06:40:03.537Z,15.93
2019-06-08T06:41:03.539Z,16.01
2019-06-08T06:42:03.523Z,16.01
2019-06-08T06:43:03.516Z,16.10
2019-06-08T06:44:03.513Z,16.01
2019-06-08T06:45:03.512Z,15.99
2019-06-08T06:46:03.508Z,16.04
2019-06-08T06:47:03.506Z,16.08
2019-06-08T06:48:03.537Z,16.11
2019-06-08T06:49:03.498Z,16.22
2019-06-08T06:50:03.499Z,16.07
2019-06-08T06:51:03.485Z,16.14
2019-06-08T06:52:03.480Z,16.40
2019-06-08T06:53:03.480Z,16.72
2019-06-08T06:54:03.591Z,16.78
2019-06-08T06:55:03.478Z,16.73
2019-06-08T06:56:03.464Z,16.63
2019-06-08T06:57:03.522Z,16.47
2019-06-08T06:58:03.463Z,16.66
2019-06-08T06:59:03.454Z,16.75
2019-06-08T07:00:03.451Z,16.81
2019-06-08T07:01:03.443Z,16.90
2019-06-08T07:02:03.452Z,17.05
2019-06-08T07:03:03.590Z,17.07
2019-06-08T07:04:03.433Z,17.27
2019-06-08T07:05:03.432Z,17.09
2019-06-08T07:06:03.430Z,16.91
2019-06-08T07:07:03.456Z,16.82
2019-06-08T07:08:03.435Z,16.92
2019-06-08T07:09:03.427Z,16.85
2019-06-08T07:10:03.421Z,16.80
2019-06-08T07:11:03.418Z,16.63
2019-06-08T07:12:03.432Z,16.60
2019-06-08T07:13:03.405Z,16.85
2019-06-08T07:14:03.407Z,16.80
2019-06-08T07:15:03.396Z,16.96
2019-06-08T07:16:17.880Z,16.95
2019-06-08T07:17:03.400Z,16.84
2019-06-08T07:18:03.405Z,16.67
2019-06-08T07:19:03.503Z,16.54
2019-06-08T07:20:03.390Z,16.52
2019-06-08T07:21:03.381Z,16.54
2019-06-08T07:22:03.377Z,16.45
2019-06-08T07:23:03.376Z,16.59
2019-06-08T07:24:03.373Z,16.50
2019-06-08T07:25:03.382Z,16.63
2019-06-08T07:26:03.373Z,16.60
2019-06-08T07:27:03.366Z,16.72
2019-06-08T07:28:03.359Z,16.77
2019-06-08T07:29:03.371Z,16.88
2019-06-08T07:30:03.507Z,17.03
2019-06-08T07:31:03.359Z,17.07
2019-06-08T07:32:03.356Z,17.49
2019-06-08T07:33:03.342Z,17.58
2019-06-08T07:34:03.342Z,17.51
2019-06-08T07:35:03.352Z,17.77
2019-06-08T07:36:03.335Z,18.25
2019-06-08T07:37:03.337Z,17.86
2019-06-08T07:38:03.363Z,17.83
2019-06-08T07:39:03.332Z,17.46
2019-06-08T07:40:03.332Z,17.30
2019-06-08T07:41:03.323Z,17.14
2019-06-08T07:42:03.322Z,17.14
2019-06-08T07:43:03.327Z,17.10
2019-06-08T07:44:03.323Z,17.07
2019-06-08T07:45:03.315Z,17.02
2019-06-08T07:46:03.316Z,17.14
2019-06-08T07:47:03.316Z,17.21
2019-06-08T07:48:03.313Z,17.42
2019-06-08T07:49:03.315Z,17.38
2019-06-08T07:50:04.751Z,17.45
2019-06-08T07:51:03.311Z,17.58
2019-06-08T07:52:10.401Z,17.54
2019-06-08T07:53:03.301Z,17.57
2019-06-08T07:54:03.302Z,17.55
2019-06-08T07:55:03.296Z,17.30
2019-06-08T07:56:03.293Z,17.38
2019-06-08T07:57:03.294Z,17.57
2019-06-08T07:58:03.295Z,17.79
2019-06-08T07:59:03.437Z,18.32
2019-06-08T08:00:09.245Z,18.17
2019-06-08T08:01:07.928Z,18.26
2019-06-08T08:02:03.291Z,18.46
2019-06-08T08:03:03.286Z,18.82
2019-06-08T08:04:03.287Z,19.15
2019-06-08T08:05:03.282Z,19.27
2019-06-08T08:06:03.281Z,20.64
2019-06-08T08:07:03.279Z,21.28
2019-06-08T08:08:03.278Z,21.67
2019-06-08T08:09:03.280Z,22.19
2019-06-08T08:10:03.298Z,21.43
2019-06-08T08:11:03.279Z,21.70
2019-06-08T08:12:03.280Z,21.13
2019-06-08T08:13:03.331Z,20.63
2019-06-08T08:14:03.294Z,20.44
2019-06-08T08:15:03.283Z,20.93
2019-06-08T08:16:03.284Z,20.81
2019-06-08T08:17:03.281Z,21.27
2019-06-08T08:18:03.284Z,22.08
2019-06-08T08:19:03.294Z,22.70
2019-06-08T08:20:03.290Z,23.34
2019-06-08T08:21:14.374Z,24.11
2019-06-08T08:22:19.597Z,23.42
2019-06-08T08:23:05.932Z,22.84
2019-06-08T08:24:03.309Z,22.56
2019-06-08T08:25:05.063Z,23.14
2019-06-08T08:26:03.313Z,23.64
2019-06-08T08:27:03.919Z,23.47
2019-06-08T08:28:03.322Z,23.32
2019-06-08T08:29:03.642Z,23.07
2019-06-08T08:30:03.334Z,23.99
2019-06-08T08:31:03.336Z,24.33
2019-06-08T08:32:03.340Z,24.21
2019-06-08T08:33:03.591Z,24.55
2019-06-08T08:34:05.721Z,24.60
2019-06-08T08:35:03.364Z,25.02
2019-06-08T08:36:03.370Z,24.68
2019-06-08T08:37:06.342Z,24.37
2019-06-08T08:38:04.625Z,24.82
2019-06-08T08:39:03.383Z,24.42
2019-06-08T08:40:03.388Z,24.15
2019-06-08T08:41:07.116Z,24.18
2019-06-08T08:42:05.343Z,23.94
2019-06-08T08:43:03.420Z,22.97
2019-06-08T08:44:04.801Z,23.57
2019-06-08T08:45:05.501Z,22.81
2019-06-08T08:46:03.432Z,22.74
2019-06-08T08:47:03.443Z,22.24
2019-06-08T08:48:20.026Z,22.27
2019-06-08T08:49:09.504Z,23.41
2019-06-08T08:50:03.460Z,24.06
2019-06-08T08:51:03.881Z,23.97
2019-06-08T08:52:03.466Z,24.02
2019-06-08T08:53:03.477Z,23.64
2019-06-08T08:54:05.338Z,23.64
2019-06-08T08:55:03.494Z,23.23
2019-06-08T08:56:03.498Z,22.08
2019-06-08T08:57:05.244Z,22.04
2019-06-08T08:58:03.508Z,21.94
2019-06-08T08:59:03.530Z,21.43
2019-06-08T09:00:05.125Z,20.69
2019-06-08T09:01:03.899Z,20.72
2019-06-08T09:02:03.537Z,20.68
2019-06-08T09:03:24.373Z,20.44
2019-06-08T09:04:05.080Z,20.44
2019-06-08T09:05:04.053Z,20.46
2019-06-08T09:06:04.113Z,20.33
2019-06-08T09:07:07.805Z,20.48
2019-06-08T09:08:04.104Z,19.85
2019-06-08T09:09:03.727Z,19.82
2019-06-08T09:10:03.996Z,19.76
2019-06-08T09:11:04.029Z,19.70
2019-06-08T09:12:04.580Z,19.49
2019-06-08T09:13:04.728Z,19.28
2019-06-08T09:14:07.126Z,19.12
2019-06-08T09:15:03.975Z,19.01
2019-06-08T09:16:04.328Z,18.84
2019-06-08T09:17:03.883Z,18.71
2019-06-08T09:18:03.946Z,18.62
2019-06-08T09:19:04.573Z,18.69
2019-06-08T09:20:03.950Z,18.62
2019-06-08T09:21:04.270Z,18.53
2019-06-08T09:22:04.074Z,18.71
2019-06-08T09:23:14.614Z,18.69
2019-06-08T09:24:04.231Z,18.69
2019-06-08T09:25:04.516Z,18.82
2019-06-08T09:26:09.036Z,19.17
2019-06-08T09:27:04.329Z,20.91
2019-06-08T09:28:04.892Z,21.75
2019-06-08T09:29:08.270Z,22.63
2019-06-08T09:30:04.798Z,24.41
2019-06-08T09:31:04.173Z,23.68
2019-06-08T09:32:03.835Z,23.22
2019-06-08T09:33:04.277Z,22.64
2019-06-08T09:34:09.373Z,22.52
2019-06-08T09:35:04.821Z,22.12
2019-06-08T09:36:04.908Z,21.83
2019-06-08T09:37:05.097Z,21.73
2019-06-08T09:38:04.950Z,21.71
2019-06-08T09:39:04.716Z,21.55
2019-06-08T09:40:03.815Z,21.70
2019-06-08T09:41:05.319Z,21.58
2019-06-08T09:42:05.135Z,21.15
2019-06-08T09:43:09.116Z,20.97
2019-06-08T09:44:05.618Z,20.71
2019-06-08T09:45:05.490Z,20.25
2019-06-08T09:46:05.259Z,19.85
2019-06-08T09:47:09.331Z,19.67
2019-06-08T09:48:05.552Z,19.71
2019-06-08T09:49:06.498Z,19.60
2019-06-08T09:50:05.560Z,19.62
2019-06-08T09:51:05.631Z,19.70
2019-06-08T09:52:05.131Z,19.71
2019-06-08T09:53:20.114Z,19.50
2019-06-08T09:54:06.118Z,19.75
2019-06-08T09:55:06.102Z,19.60
2019-06-08T09:56:06.219Z,19.52
2019-06-08T09:57:04.385Z,19.79
2019-06-08T09:58:07.755Z,19.79
2019-06-08T09:59:06.052Z,20.02
2019-06-08T10:00:14.509Z,19.80
2019-06-08T10:01:05.735Z,19.90
2019-06-08T10:02:09.090Z,19.97
2019-06-08T10:03:06.155Z,19.94
2019-06-08T10:04:05.833Z,20.19
2019-06-08T10:05:04.458Z,20.50
2019-06-08T10:06:08.323Z,20.87
2019-06-08T10:07:04.310Z,20.79
2019-06-08T10:08:04.561Z,20.75
2019-06-08T10:09:04.807Z,20.60
2019-06-08T10:10:04.808Z,20.16
2019-06-08T10:11:05.871Z,20.22
2019-06-08T10:12:05.025Z,20.15
2019-06-08T10:13:06.448Z,20.22
2019-06-08T10:14:06.358Z,20.12
2019-06-08T10:15:04.741Z,20.16
2019-06-08T10:16:06.684Z,20.13
2019-06-08T10:17:04.295Z,20.37
2019-06-08T10:18:04.863Z,20.37
2019-06-08T10:19:05.949Z,20.42
2019-06-08T10:20:05.178Z,20.46
2019-06-08T10:21:06.027Z,20.17
2019-06-08T10:22:05.051Z,20.35
2019-06-08T10:23:05.545Z,20.41
2019-06-08T10:24:06.134Z,20.50
2019-06-08T10:25:06.583Z,20.68
2019-06-08T10:26:05.254Z,20.85
2019-06-08T10:27:03.687Z,21.06
2019-06-08T10:28:09.851Z,20.94
2019-06-08T10:29:05.415Z,21.18
2019-06-08T10:30:05.877Z,21.28
2019-06-08T10:31:04.607Z,21.16
2019-06-08T10:32:03.821Z,21.26
2019-06-08T10:33:05.807Z,21.33
2019-06-08T10:34:05.489Z,21.15
2019-06-08T10:35:05.348Z,20.87
2019-06-08T10:36:05.578Z,20.87
2019-06-08T10:37:11.885Z,20.71
2019-06-08T10:38:07.962Z,20.31
2019-06-08T10:39:07.312Z,20.16
2019-06-08T10:40:05.506Z,20.01
2019-06-08T10:41:15.297Z,20.10
2019-06-08T10:42:05.255Z,20.15
2019-06-08T10:43:05.033Z,20.12
2019-06-08T10:44:03.699Z,19.95
2019-06-08T10:45:08.037Z,19.87
2019-06-08T10:46:10.052Z,19.90
2019-06-08T10:47:05.553Z,19.89
2019-06-08T10:48:04.812Z,20.10
2019-06-08T10:49:04.174Z,20.27
2019-06-08T10:50:08.941Z,20.34
2019-06-08T10:51:05.475Z,20.44
2019-06-08T10:52:05.300Z,20.31
2019-06-08T10:53:06.043Z,20.44
2019-06-08T10:54:04.402Z,20.68
2019-06-08T10:55:05.308Z,20.68
2019-06-08T10:56:05.554Z,20.44
2019-06-08T10:57:05.700Z,20.53
2019-06-08T10:58:04.509Z,20.75
2019-06-08T10:59:06.406Z,20.63
2019-06-08T11:00:15.656Z,20.88
2019-06-08T11:01:06.159Z,20.91
2019-06-08T11:02:06.247Z,21.00
2019-06-08T11:03:05.512Z,21.06
2019-06-08T11:04:05.290Z,21.21
2019-06-08T11:05:08.007Z,21.46
2019-06-08T11:06:05.731Z,21.42
2019-06-08T11:07:08.646Z,21.40
2019-06-08T11:08:04.491Z,21.01
2019-06-08T11:09:07.497Z,20.75
2019-06-08T11:10:04.539Z,20.51
2019-06-08T11:11:04.910Z,20.46
2019-06-08T11:12:05.238Z,20.57
2019-06-08T11:13:06.876Z,20.44
2019-06-08T11:14:05.421Z,20.50
2019-06-08T11:15:05.095Z,20.54
2019-06-08T11:16:04.419Z,20.58
2019-06-08T11:17:04.916Z,20.60
2019-06-08T11:18:06.939Z,20.53
2019-06-08T11:19:04.792Z,20.40
2019-06-08T11:20:04.761Z,20.51
2019-06-08T11:21:05.846Z,20.48
2019-06-08T11:22:06.174Z,20.54
2019-06-08T11:23:05.503Z,20.31
2019-06-08T11:24:14.434Z,20.35
2019-06-08T11:25:04.440Z,20.37
2019-06-08T11:26:11.147Z,20.19
2019-06-08T11:27:03.738Z,20.05
2019-06-08T11:28:04.025Z,19.76
2019-06-08T11:29:05.039Z,19.80
2019-06-08T11:30:12.639Z,19.62
2019-06-08T11:31:03.998Z,19.78
2019-06-08T11:32:04.286Z,19.68
2019-06-08T11:33:03.957Z,19.64
2019-06-08T11:34:04.031Z,19.76
2019-06-08T11:35:04.062Z,19.79
2019-06-08T11:36:06.317Z,19.76
2019-06-08T11:37:05.130Z,19.67
2019-06-08T11:38:04.002Z,19.67
2019-06-08T11:39:04.129Z,19.64
2019-06-08T11:40:04.588Z,19.58
2019-06-08T11:41:04.634Z,19.68
2019-06-08T11:42:04.383Z,19.58
2019-06-08T11:43:04.371Z,19.53
2019-06-08T11:44:05.077Z,19.61
2019-06-08T11:45:04.517Z,19.61
2019-06-08T11:46:04.756Z,19.60
2019-06-08T11:47:04.670Z,19.57
2019-06-08T11:48:04.749Z,19.80
2019-06-08T11:49:05.905Z,19.78
2019-06-08T11:50:04.616Z,19.80
2019-06-08T11:51:04.691Z,19.76
2019-06-08T11:52:04.601Z,19.68
2019-06-08T11:53:05.138Z,19.60
2019-06-08T11:54:04.963Z,19.50
2019-06-08T11:55:05.366Z,19.49
2019-06-08T11:56:04.707Z,19.43
2019-06-08T11:57:04.846Z,19.60
2019-06-08T11:58:04.987Z,19.53
2019-06-08T11:59:03.676Z,19.58
2019-06-08T12:00:11.913Z,19.78
2019-06-08T12:01:05.154Z,19.78
2019-06-08T12:02:03.673Z,19.97
2019-06-08T12:03:03.853Z,20.15
2019-06-08T12:04:03.684Z,20.37
2019-06-08T12:05:03.791Z,20.61
2019-06-08T12:06:04.252Z,20.54
2019-06-08T12:07:04.129Z,20.60
2019-06-08T12:08:04.383Z,20.69
2019-06-08T12:09:04.331Z,20.64
2019-06-08T12:10:04.550Z,20.68
2019-06-08T12:11:04.397Z,20.78
2019-06-08T12:12:04.506Z,20.69
2019-06-08T12:13:04.713Z,20.82
2019-06-08T12:14:04.777Z,20.82
2019-06-08T12:15:04.650Z,20.78
2019-06-08T12:16:04.895Z,21.01
2019-06-08T12:17:03.657Z,20.91
2019-06-08T12:18:03.658Z,21.13
2019-06-08T12:19:04.297Z,21.08
2019-06-08T12:20:03.667Z,21.08
2019-06-08T12:21:03.803Z,21.08
2019-06-08T12:22:03.928Z,21.03
2019-06-08T12:23:03.973Z,21.11
2019-06-08T12:24:04.178Z,21.27
2019-06-08T12:25:03.904Z,21.42
2019-06-08T12:26:04.084Z,21.30
2019-06-08T12:27:14.371Z,21.15
2019-06-08T12:28:04.555Z,21.06
2019-06-08T12:29:04.952Z,20.94
2019-06-08T12:30:08.994Z,20.91
2019-06-08T12:31:04.671Z,20.82
2019-06-08T12:32:04.766Z,20.87
2019-06-08T12:33:04.805Z,20.83
2019-06-08T12:34:04.921Z,20.93
2019-06-08T12:35:03.648Z,21.19
2019-06-08T12:36:03.647Z,21.16
2019-06-08T12:37:03.652Z,21.38
2019-06-08T12:38:03.652Z,21.37
2019-06-08T12:39:03.654Z,21.42
2019-06-08T12:40:03.652Z,21.49
2019-06-08T12:41:03.648Z,21.63
2019-06-08T12:42:03.649Z,21.75
2019-06-08T12:43:03.653Z,21.75
2019-06-08T12:44:03.655Z,21.55
2019-06-08T12:45:03.671Z,21.71
2019-06-08T12:46:03.660Z,21.96
2019-06-08T12:47:03.657Z,22.05
2019-06-08T12:48:03.653Z,21.59
2019-06-08T12:49:03.659Z,21.59
2019-06-08T12:50:03.663Z,21.42
2019-06-08T12:51:03.664Z,21.64
2019-06-08T12:52:03.661Z,21.71